Time;durP1;ratioP1;P1;durP2;ratioP2;P2;SDS_P1;SDS_P2;PMS_P1;PMS_P2;Temp;Humidity;BMP_temperature;BMP_pressure;BME280_temperature;BME280_humidity;BME280_pressure;Samples;Min_cycle;Max_cycle;Signal;HPM_P1;HPM_P2
2022/09/16 00:01:44;;;;;;;;;;;;;;;13.67;62.44;100139.56;4962162;28;20369;-55
2022/09/16 00:04:09;;;;;;;;;;;;;;;13.68;62.47;100141.25;4961883;28;19984;-56
2022/09/16 00:06:34;;;;;;;;;;;;;;;13.71;62.38;100140.13;4966398;28;19956;-55
2022/09/16 00:09:00;;;;;;;;;;;;;;;13.71;62.41;100142.78;4967382;28;20004;-55
2022/09/16 00:11:26;;;;;;;;;;;;;;;13.69;62.38;100140.25;4964996;28;20397;-55
2022/09/16 00:13:51;;;;;;;;;;;;;;;13.71;62.44;100143.63;4950384;28;19926;-58
2022/09/16 00:16:18;;;;;;;;;;;;;;;13.73;62.44;100138.22;4957339;28;20329;-55
2022/09/16 00:18:43;;;;;;;;;;;;;;;13.70;62.61;100144.56;4965388;28;19937;-58
2022/09/16 00:21:09;;;;;;;;;;;;;;;13.65;62.62;100136.19;4969026;28;19922;-55
2022/09/16 00:23:34;;;;;;;;;;;;;;;13.61;62.66;100145.31;4965535;28;19922;-55
2022/09/16 00:26:00;;;;;;;;;;;;;;;13.60;62.60;100142.81;4965661;28;19929;-55
2022/09/16 00:28:25;;;;;;;;;;;;;;;13.58;62.71;100140.28;4967281;28;20341;-55
2022/09/16 00:30:51;;;;;;;;;;;;;;;13.56;62.91;100140.41;4967181;28;19996;-55
2022/09/16 00:33:17;;;;;;;;;;;;;;;13.55;62.84;100145.81;4967462;28;20279;-55
2022/09/16 00:35:42;;;;;;;;;;;;;;;13.55;63.01;100145.81;4963803;28;19929;-55
2022/09/16 00:38:07;;;;;;;;;;;;;;;13.53;62.99;100140.66;4967055;28;19918;-56
2022/09/16 00:40:33;;;;;;;;;;;;;;;13.53;63.02;100145.09;4965403;28;20021;-55
2022/09/16 00:42:59;;;;;;;;;;;;;;;13.54;63.00;100137.03;4966235;28;20432;-55
2022/09/16 00:45:27;;;;;;;;;;;;;;;13.56;62.80;100135.13;4961510;28;19930;-56
2022/09/16 00:47:58;;;;;;;;;;;;;;;13.56;63.13;100135.13;4965277;28;19919;-55
2022/09/16 00:50:30;;;;;;;;;;;;;;;13.56;63.12;100139.56;4963829;28;20469;-55
2022/09/16 00:52:55;;;;;;;;;;;;;;;13.52;63.18;100141.63;4964083;28;19918;-55
2022/09/16 00:55:24;;;;;;;;;;;;;;;13.52;63.26;100143.44;4966488;28;20437;-55
2022/09/16 00:57:50;;;;;;;;;;;;;;;13.50;63.18;100148.81;4968815;28;19918;-55
2022/09/16 01:00:16;;;;;;;;;;;;;;;13.48;63.29;100139.34;4964452;28;20721;-56
2022/09/16 01:02:43;;;;;;;;;;;;;;;13.48;63.41;100139.34;4964919;28;19918;-55
2022/09/16 01:05:11;;;;;;;;;;;;;;;13.49;63.28;100147.13;4961952;28;19922;-55
2022/09/16 01:07:41;;;;;;;;;;;;;;;13.47;63.15;100153.50;4968505;28;19919;-55
2022/09/16 01:10:08;;;;;;;;;;;;;;;13.44;63.38;100138.75;4964651;28;21443;-55
2022/09/16 01:12:35;;;;;;;;;;;;;;;13.39;63.58;100136.41;4968246;28;19929;-56
2022/09/16 01:15:01;;;;;;;;;;;;;;;13.38;63.57;100134.75;4964178;28;20008;-56
2022/09/16 01:17:27;;;;;;;;;;;;;;;13.36;63.80;100141.97;4965156;28;19930;-56
2022/09/16 01:19:55;;;;;;;;;;;;;;;13.37;63.73;100143.66;4964795;28;19918;-56
2022/09/16 01:22:26;;;;;;;;;;;;;;;13.38;63.71;100140.06;4964321;28;19925;-55
2022/09/16 01:24:54;;;;;;;;;;;;;;;13.40;63.79;100132.84;4963848;28;19929;-55
2022/09/16 01:27:29;;;;;;;;;;;;;;;13.38;63.79;100142.69;4964420;28;20049;-55
2022/09/16 01:29:57;;;;;;;;;;;;;;;13.38;63.71;100134.75;4960237;28;19926;-55
2022/09/16 01:32:22;;;;;;;;;;;;;;;13.38;63.68;100144.47;4962194;28;20009;-55
2022/09/16 01:34:48;;;;;;;;;;;;;;;13.36;63.91;100134.03;4966212;28;20016;-56
2022/09/16 01:37:16;;;;;;;;;;;;;;;13.36;63.91;100133.19;4973368;28;20286;-57
2022/09/16 01:40:07;;;;;;;;;;;;;;;13.36;63.88;100144.63;4972244;28;19925;-57
2022/09/16 01:42:48;;;;;;;;;;;;;;;13.35;64.00;100137.66;4965960;28;19929;-55
2022/09/16 01:45:19;;;;;;;;;;;;;;;13.33;64.12;100136.91;4969911;28;20492;-55
2022/09/16 01:47:59;;;;;;;;;;;;;;;13.32;63.89;100129.97;4970862;28;19980;-55
2022/09/16 01:50:43;;;;;;;;;;;;;;;13.33;64.02;100136.91;4965194;28;19926;-56
2022/09/16 01:53:18;;;;;;;;;;;;;;;13.28;64.11;100133.78;4963422;28;19922;-55
2022/09/16 01:55:58;;;;;;;;;;;;;;;13.28;64.19;100133.78;4967983;28;20509;-55
2022/09/16 01:58:46;;;;;;;;;;;;;;;13.27;64.12;100140.03;4966628;28;19922;-55
2022/09/16 02:01:15;;;;;;;;;;;;;;;13.26;64.26;100143.63;4958493;28;20215;-57
2022/09/16 02:03:43;;;;;;;;;;;;;;;13.23;64.24;100146.53;4968652;28;20810;-55
2022/09/16 02:06:11;;;;;;;;;;;;;;;13.21;64.18;100136.09;4966346;28;19926;-56
2022/09/16 02:08:39;;;;;;;;;;;;;;;13.20;64.44;100142.31;4962787;28;19974;-59
2022/09/16 02:11:07;;;;;;;;;;;;;;;13.19;64.52;100126.59;4966668;28;19926;-55
2022/09/16 02:13:38;;;;;;;;;;;;;;;13.19;64.60;100145.09;4966707;28;20246;-56
2022/09/16 02:16:07;;;;;;;;;;;;;;;13.17;64.40;100133.81;4970177;28;19922;-55
2022/09/16 02:18:34;;;;;;;;;;;;;;;13.15;64.46;100139.22;4970405;28;19926;-55
2022/09/16 02:21:02;;;;;;;;;;;;;;;13.15;64.39;100135.72;4966670;28;20401;-55
2022/09/16 02:23:32;;;;;;;;;;;;;;;13.11;64.68;100141.25;4967166;28;19984;-56
2022/09/16 02:25:59;;;;;;;;;;;;;;;13.10;64.58;100126.34;4969819;28;19926;-55
2022/09/16 02:28:28;;;;;;;;;;;;;;;13.12;64.58;100123.59;4967819;28;20404;-55
2022/09/16 02:30:56;;;;;;;;;;;;;;;13.15;64.78;100127.81;4968307;28;19929;-55
2022/09/16 02:33:23;;;;;;;;;;;;;;;13.15;64.55;100127.81;4972888;28;20005;-54
2022/09/16 02:35:51;;;;;;;;;;;;;;;13.13;64.77;100125.28;4968584;28;19918;-55
2022/09/16 02:38:19;;;;;;;;;;;;;;;13.11;64.79;100122.75;4965518;28;19988;-56
2022/09/16 02:40:51;;;;;;;;;;;;;;;13.11;64.82;100128.03;4966154;28;19926;-55
2022/09/16 02:43:16;;;;;;;;;;;;;;;13.10;64.74;100126.34;4973177;28;19929;-55
2022/09/16 02:45:44;;;;;;;;;;;;;;;13.08;64.86;100122.97;4970979;28;19922;-57
2022/09/16 02:48:28;;;;;;;;;;;;;;;13.07;64.87;100126.63;4967320;28;19929;-59
2022/09/16 02:51:04;;;;;;;;;;;;;;;13.06;64.79;100129.34;4967853;28;19949;-55
2022/09/16 02:53:39;;;;;;;;;;;;;;;13.02;64.93;100123.47;4967061;28;19918;-55
2022/09/16 02:56:24;;;;;;;;;;;;;;;13.02;65.00;100128.75;4965222;28;19929;-56
2022/09/16 02:58:50;;;;;;;;;;;;;;;13.00;64.89;100135.97;4963314;28;19925;-57
2022/09/16 03:01:16;;;;;;;;;;;;;;;12.99;65.17;100128.16;4968084;28;19929;-57
2022/09/16 03:03:42;;;;;;;;;;;;;;;12.98;65.07;100129.13;4968207;28;20591;-55
2022/09/16 03:06:07;;;;;;;;;;;;;;;12.95;65.25;100132.81;4968339;28;20013;-55
2022/09/16 03:08:33;;;;;;;;;;;;;;;12.93;65.29;100132.97;4966965;28;19945;-55
2022/09/16 03:11:02;;;;;;;;;;;;;;;12.92;65.29;100141.00;4966710;28;20009;-55
2022/09/16 03:13:35;;;;;;;;;;;;;;;12.90;65.05;100133.19;4962790;28;19922;-55
2022/09/16 03:16:13;;;;;;;;;;;;;;;12.88;65.21;100123.72;4964880;28;20391;-56
2022/09/16 03:18:38;;;;;;;;;;;;;;;12.83;65.39;100128.50;4965337;28;19919;-55
2022/09/16 03:21:03;;;;;;;;;;;;;;;12.80;65.52;100127.78;4966665;28;19938;-55
2022/09/16 03:23:41;;;;;;;;;;;;;;;12.80;65.44;100126.94;4967626;28;19918;-56
2022/09/16 03:26:20;;;;;;;;;;;;;;;12.78;65.63;100121.75;4963594;28;20280;-55
2022/09/16 03:29:01;;;;;;;;;;;;;;;12.78;65.63;100120.94;4961692;28;19930;-54
2022/09/16 03:31:31;;;;;;;;;;;;;;;12.76;65.35;100115.78;4968707;28;19933;-56
2022/09/16 03:33:56;;;;;;;;;;;;;;;12.72;65.76;100116.13;4967425;28;19918;-56
2022/09/16 03:36:25;;;;;;;;;;;;;;;12.70;65.71;100120.69;4962919;28;19926;-55
2022/09/16 03:38:52;;;;;;;;;;;;;;;12.69;65.62;100122.47;4968076;28;19929;-57
2022/09/16 03:41:18;;;;;;;;;;;;;;;12.69;65.74;100106.66;4964283;28;19926;-56
2022/09/16 03:43:53;;;;;;;;;;;;;;;12.66;65.71;100112.16;4963363;28;20381;-54
2022/09/16 03:46:18;;;;;;;;;;;;;;;12.65;65.66;100113.13;4967835;28;20279;-55
2022/09/16 03:48:43;;;;;;;;;;;;;;;12.63;65.68;100113.25;4966380;28;20001;-55
2022/09/16 03:51:09;;;;;;;;;;;;;;;12.62;65.61;100110.72;4965544;28;19988;-54
2022/09/16 03:53:34;;;;;;;;;;;;;;;12.61;65.68;100119.59;4963586;28;20024;-56
2022/09/16 03:55:59;;;;;;;;;;;;;;;12.59;65.65;100108.31;4967313;28;20283;-55
2022/09/16 03:58:25;;;;;;;;;;;;;;;12.55;65.67;100114.78;4961831;28;19925;-56
2022/09/16 04:00:50;;;;;;;;;;;;;;;12.53;65.81;100114.06;4964320;28;20077;-55
2022/09/16 04:03:16;;;;;;;;;;;;;;;12.52;65.89;100115.00;4963134;28;19929;-56
2022/09/16 04:05:41;;;;;;;;;;;;;;;12.50;65.90;100110.69;4966029;28;19970;-54
2022/09/16 04:08:07;;;;;;;;;;;;;;;12.48;65.84;100109.13;4964125;28;20501;-56
2022/09/16 04:10:33;;;;;;;;;;;;;;;12.47;65.96;100108.31;4967551;28;19996;-55
2022/09/16 04:12:59;;;;;;;;;;;;;;;12.46;66.06;100114.53;4958888;28;20297;-54
2022/09/16 04:15:24;;;;;;;;;;;;;;;12.45;66.05;100106.72;4966341;28;20394;-58
2022/09/16 04:17:50;;;;;;;;;;;;;;;12.43;66.09;100112.13;4958301;28;20333;-53
2022/09/16 04:20:15;;;;;;;;;;;;;;;12.42;66.02;100110.44;4961922;28;20005;-54
2022/09/16 04:22:40;;;;;;;;;;;;;;;12.42;66.13;100110.44;4961346;28;19933;-55
2022/09/16 04:25:06;;;;;;;;;;;;;;;12.39;66.03;100105.38;4960817;28;21094;-54
2022/09/16 04:27:31;;;;;;;;;;;;;;;12.33;66.18;100108.47;4957814;28;20009;-54
2022/09/16 04:29:57;;;;;;;;;;;;;;;12.32;66.43;100112.09;4955165;28;19934;-58
2022/09/16 04:32:23;;;;;;;;;;;;;;;12.31;66.22;100113.88;4963434;28;19926;-61
2022/09/16 04:34:48;;;;;;;;;;;;;;;12.29;66.41;100102.59;4968686;28;20005;-55
2022/09/16 04:37:13;;;;;;;;;;;;;;;12.29;66.33;100114.97;4962002;28;19930;-61
2022/09/16 04:39:38;;;;;;;;;;;;;;;12.28;66.29;100110.63;4962343;28;19985;-57
2022/09/16 04:42:05;;;;;;;;;;;;;;;12.26;66.34;100108.09;4964107;28;19933;-55
2022/09/16 04:44:31;;;;;;;;;;;;;;;12.26;66.45;100110.75;4961740;28;19973;-54
2022/09/16 04:46:56;;;;;;;;;;;;;;;12.25;66.66;100110.88;4963868;28;19930;-54
2022/09/16 04:49:21;;;;;;;;;;;;;;;12.26;66.68;100109.91;4967533;28;19930;-56
2022/09/16 04:51:47;;;;;;;;;;;;;;;12.27;66.66;100112.41;4967221;28;19922;-55
2022/09/16 04:54:12;;;;;;;;;;;;;;;12.29;66.50;100107.06;4959396;28;19953;-54
2022/09/16 04:56:38;;;;;;;;;;;;;;;12.30;66.55;100114.84;4963949;28;19934;-57
2022/09/16 04:59:03;;;;;;;;;;;;;;;12.31;66.55;100105.13;4966467;28;19933;-56
2022/09/16 05:01:30;;;;;;;;;;;;;;;12.31;66.61;100102.50;4961464;28;19930;-55
2022/09/16 05:04:03;;;;;;;;;;;;;;;12.29;66.79;100109.69;4965445;28;20024;-56
2022/09/16 05:06:29;;;;;;;;;;;;;;;12.28;66.67;100108.00;4960388;28;19922;-57
2022/09/16 05:08:55;;;;;;;;;;;;;;;12.25;66.91;100092.41;4961127;28;19926;-59
2022/09/16 05:11:22;;;;;;;;;;;;;;;12.26;66.96;100096.72;4962651;28;19926;-56
2022/09/16 05:13:47;;;;;;;;;;;;;;;12.27;66.92;100101.03;4968885;28;20862;-55
2022/09/16 05:16:14;;;;;;;;;;;;;;;12.29;66.83;100099.13;4964162;28;19925;-56
2022/09/16 05:18:40;;;;;;;;;;;;;;;12.29;66.82;100099.13;4965261;28;20301;-54
2022/09/16 05:21:07;;;;;;;;;;;;;;;12.29;66.76;100099.97;4967252;28;19933;-54
2022/09/16 05:23:32;;;;;;;;;;;;;;;12.31;66.80;100095.41;4965911;28;20279;-57
2022/09/16 05:26:03;;;;;;;;;;;;;;;12.31;66.98;100100.69;4964411;28;19929;-54
2022/09/16 05:28:28;;;;;;;;;;;;;;;12.32;66.84;100104.19;4964584;28;19969;-55
2022/09/16 05:30:53;;;;;;;;;;;;;;;12.34;66.95;100104.88;4966714;28;19968;-61
2022/09/16 05:33:19;;;;;;;;;;;;;;;12.39;66.87;100115.94;4966738;28;19926;-54
2022/09/16 05:35:44;;;;;;;;;;;;;;;12.44;66.74;100108.53;4964739;28;20017;-53
2022/09/16 05:38:10;;;;;;;;;;;;;;;12.47;66.76;100104.81;4969166;28;21194;-56
2022/09/16 05:40:36;;;;;;;;;;;;;;;12.51;66.79;100103.63;4967578;28;19949;-55
2022/09/16 05:43:01;;;;;;;;;;;;;;;12.54;66.75;100107.81;4966192;28;19922;-58
2022/09/16 05:45:26;;;;;;;;;;;;;;;12.58;66.74;100098.72;4965775;28;20526;-57
2022/09/16 05:47:52;;;;;;;;;;;;;;;12.61;66.61;100103.78;4967673;28;20029;-54
2022/09/16 05:50:17;;;;;;;;;;;;;;;12.63;66.78;100099.19;4963215;28;19934;-53
2022/09/16 05:52:42;;;;;;;;;;;;;;;12.65;66.54;100094.63;4966416;28;19930;-57
2022/09/16 05:55:08;;;;;;;;;;;;;;;12.69;66.63;100105.81;4964037;28;20400;-54
2022/09/16 05:57:33;;;;;;;;;;;;;;;12.69;66.65;100101.38;4967386;28;20033;-54
2022/09/16 05:59:58;;;;;;;;;;;;;;;12.71;66.66;100096.81;4965397;28;19964;-53
2022/09/16 06:02:24;;;;;;;;;;;;;;;12.74;66.45;100109.78;4967617;28;20299;-55
2022/09/16 06:04:49;;;;;;;;;;;;;;;12.78;66.61;100100.66;4977868;28;19937;-54
2022/09/16 06:07:16;;;;;;;;;;;;;;;12.81;66.40;100103.06;4965937;28;20350;-54
2022/09/16 06:09:41;;;;;;;;;;;;;;;12.84;66.47;100104.63;4955733;28;19933;-54
2022/09/16 06:12:08;;;;;;;;;;;;;;;12.86;66.43;100104.50;4962743;28;19980;-54
2022/09/16 06:14:33;;;;;;;;;;;;;;;12.90;66.49;100101.50;4961253;28;19924;-54
2022/09/16 06:16:59;;;;;;;;;;;;;;;12.94;66.28;100100.31;4963072;28;20012;-55
2022/09/16 06:19:24;;;;;;;;;;;;;;;12.99;66.12;100105.22;4961554;28;19921;-58
2022/09/16 06:21:49;;;;;;;;;;;;;;;12.96;66.42;100102.81;4969288;28;19945;-56
2022/09/16 06:24:16;;;;;;;;;;;;;;;12.97;66.33;100104.50;4965543;28;19922;-57
2022/09/16 06:26:42;;;;;;;;;;;;;;;13.00;66.21;100099.00;4964627;28;19929;-60
2022/09/16 06:29:08;;;;;;;;;;;;;;;13.02;66.43;100096.22;4968125;28;20030;-56
2022/09/16 06:31:34;;;;;;;;;;;;;;;13.04;66.14;100104.88;4971380;28;20352;-54
2022/09/16 06:34:00;;;;;;;;;;;;;;;13.02;66.12;100091.78;4968496;28;19922;-55
2022/09/16 06:36:29;;;;;;;;;;;;;;;13.05;66.23;100103.91;4970845;28;19922;-59
2022/09/16 06:38:55;;;;;;;;;;;;;;;13.05;66.42;100117.97;4971854;28;19918;-55
2022/09/16 06:41:21;;;;;;;;;;;;;;;13.04;66.22;100095.16;4971288;28;19929;-54
2022/09/16 06:43:47;;;;;;;;;;;;;;;13.07;66.21;100108.13;4970598;28;20353;-58
2022/09/16 06:46:15;;;;;;;;;;;;;;;13.07;66.05;100094.91;4972285;28;19918;-54
2022/09/16 06:48:41;;;;;;;;;;;;;;;13.08;66.15;100096.56;4966950;28;19925;-58
2022/09/16 06:51:08;;;;;;;;;;;;;;;13.11;65.92;100096.34;4971104;28;19922;-54
2022/09/16 06:53:33;;;;;;;;;;;;;;;13.15;65.79;100102.25;4970778;28;19918;-56
2022/09/16 06:56:03;;;;;;;;;;;;;;;13.19;65.69;100102.84;4971021;28;19928;-53
2022/09/16 06:58:31;;;;;;;;;;;;;;;13.18;65.46;100095.88;4971056;28;19964;-54
2022/09/16 07:00:56;;;;;;;;;;;;;;;13.16;65.50;100098.59;4969336;28;19925;-53
2022/09/16 07:03:22;;;;;;;;;;;;;;;13.16;65.62;100093.31;4968507;28;20016;-55
2022/09/16 07:05:57;;;;;;;;;;;;;;;13.17;65.57;100096.81;4970025;28;20214;-54
2022/09/16 07:08:22;;;;;;;;;;;;;;;13.21;65.47;100095.63;4968417;28;19918;-55
2022/09/16 07:11:14;;;;;;;;;;;;;;;13.27;65.57;100105.69;4969524;28;19985;-54
2022/09/16 07:13:40;;;;;;;;;;;;;;;13.31;65.17;100099.22;4967485;28;19917;-56
2022/09/16 07:16:07;;;;;;;;;;;;;;;13.36;65.05;100104.97;4967348;28;20461;-54
2022/09/16 07:18:32;;;;;;;;;;;;;;;13.37;64.95;100098.72;4970584;28;19922;-58
2022/09/16 07:21:05;;;;;;;;;;;;;;;13.40;64.98;100100.31;4969478;28;19926;-54
2022/09/16 07:23:31;;;;;;;;;;;;;;;13.45;65.08;100105.22;4969588;28;19918;-55
2022/09/16 07:26:00;;;;;;;;;;;;;;;13.48;64.80;100112.91;4970668;28;20381;-54
2022/09/16 07:28:25;;;;;;;;;;;;;;;13.50;64.58;100109.19;4963827;28;19928;-53
2022/09/16 07:30:51;;;;;;;;;;;;;;;13.50;64.70;100117.09;4970728;28;19926;-60
2022/09/16 07:33:17;;;;;;;;;;;;;;;13.53;64.53;100110.75;4968073;28;19922;-56
2022/09/16 07:35:42;;;;;;;;;;;;;;;13.55;64.44;100124.66;4968763;28;19941;-55
2022/09/16 07:38:07;;;;;;;;;;;;;;;13.59;64.29;100128.75;4969639;28;20018;-53
2022/09/16 07:40:33;;;;;;;;;;;;;;;13.60;64.26;100105.81;4969107;28;19933;-56
2022/09/16 07:42:58;;;;;;;;;;;;;;;13.62;64.17;100103.84;4967809;28;20113;-56
2022/09/16 07:45:23;;;;;;;;;;;;;;;13.65;64.35;100125.63;4970001;28;19968;-55
2022/09/16 07:47:49;;;;;;;;;;;;;;;13.69;64.20;100115.63;4970272;28;20338;-54
2022/09/16 07:50:14;;;;;;;;;;;;;;;13.75;64.18;100115.13;4969879;28;20025;-54
2022/09/16 07:52:40;;;;;;;;;;;;;;;13.82;64.31;100113.66;4970151;28;20307;-56
2022/09/16 07:55:05;;;;;;;;;;;;;;;13.87;63.96;100129.16;4967738;28;19928;-53
2022/09/16 07:57:30;;;;;;;;;;;;;;;13.91;63.71;100130.59;4967487;28;19926;-56
2022/09/16 07:59:56;;;;;;;;;;;;;;;13.93;63.67;100123.38;4969313;28;19926;-58
2022/09/16 08:02:21;;;;;;;;;;;;;;;13.94;63.38;100129.47;4968479;28;20021;-56
2022/09/16 08:04:47;;;;;;;;;;;;;;;13.94;63.25;100129.47;4968906;28;19926;-54
2022/09/16 08:07:12;;;;;;;;;;;;;;;13.94;63.30;100122.41;4969954;28;19998;-56
2022/09/16 08:09:38;;;;;;;;;;;;;;;13.96;63.32;100116.97;4970260;28;19930;-54
2022/09/16 08:12:04;;;;;;;;;;;;;;;13.99;63.31;100116.72;4967823;28;20496;-56
2022/09/16 08:14:29;;;;;;;;;;;;;;;14.02;63.16;100119.13;4969861;28;19914;-53
2022/09/16 08:16:55;;;;;;;;;;;;;;;14.06;63.02;100119.72;4967208;28;19922;-54
2022/09/16 08:19:21;;;;;;;;;;;;;;;14.07;62.95;100127.50;4970910;28;19922;-55
2022/09/16 08:21:46;;;;;;;;;;;;;;;14.09;62.87;100138.81;4967903;28;19922;-56
2022/09/16 08:24:12;;;;;;;;;;;;;;;14.11;62.62;100117.53;4969884;28;19933;-53
2022/09/16 08:26:37;;;;;;;;;;;;;;;14.12;62.55;100133.28;4967617;28;20949;-54
2022/09/16 08:29:03;;;;;;;;;;;;;;;14.12;62.49;100130.63;4970242;28;19953;-55
2022/09/16 08:31:28;;;;;;;;;;;;;;;14.15;62.33;100124.22;4967371;28;19969;-53
2022/09/16 08:33:53;;;;;;;;;;;;;;;14.19;62.37;100130.94;4969493;28;19973;-56
2022/09/16 08:36:20;;;;;;;;;;;;;;;14.24;62.11;100131.44;4964644;28;20386;-56
2022/09/16 08:38:47;;;;;;;;;;;;;;;14.30;62.06;100124.78;4968896;28;19919;-53
2022/09/16 08:41:12;;;;;;;;;;;;;;;14.35;61.95;100111.16;4967144;28;19926;-54
2022/09/16 08:43:40;;;;;;;;;;;;;;;14.38;61.29;100132.06;4968904;28;19933;-54
2022/09/16 08:46:11;;;;;;;;;;;;;;;14.40;61.11;100116.91;4968050;28;19922;-54
2022/09/16 08:48:40;;;;;;;;;;;;;;;14.45;60.95;100115.56;4969636;28;19953;-55
2022/09/16 08:51:08;;;;;;;;;;;;;;;14.52;60.75;100107.94;4968438;28;19934;-55
2022/09/16 08:53:37;;;;;;;;;;;;;;;14.61;60.69;100117.72;4969565;28;19922;-56
2022/09/16 08:56:05;;;;;;;;;;;;;;;14.67;60.45;100112.88;4969321;28;19933;-53
2022/09/16 08:58:37;;;;;;;;;;;;;;;14.71;60.25;100112.53;4968954;28;20015;-54
2022/09/16 09:01:10;;;;;;;;;;;;;;;14.74;59.97;100124.69;4966803;28;19929;-54
2022/09/16 09:03:37;;;;;;;;;;;;;;;14.73;59.70;100104.47;4968993;28;19921;-53
2022/09/16 09:06:08;;;;;;;;;;;;;;;14.78;59.62;100107.53;4969709;28;19926;-53
2022/09/16 09:08:49;;;;;;;;;;;;;;;14.80;59.41;100112.72;4969597;28;20008;-55
2022/09/16 09:11:15;;;;;;;;;;;;;;;14.82;59.03;100122.22;4967558;28;20306;-54
2022/09/16 09:14:03;;;;;;;;;;;;;;;14.86;58.94;100122.78;4967612;28;20409;-54
2022/09/16 09:16:28;;;;;;;;;;;;;;;14.94;58.33;100112.38;4967752;28;20005;-53
2022/09/16 09:19:14;;;;;;;;;;;;;;;14.99;58.08;100122.56;4969286;28;20008;-53
2022/09/16 09:21:39;;;;;;;;;;;;;;;15.08;58.03;100121.75;4966381;28;20012;-53
2022/09/16 09:24:07;;;;;;;;;;;;;;;15.13;57.60;100111.59;4968481;28;20033;-54
2022/09/16 09:26:41;;;;;;;;;;;;;;;15.18;57.41;100117.34;4967811;28;19922;-55
2022/09/16 09:29:25;;;;;;;;;;;;;;;15.22;56.81;100116.09;4969374;28;19918;-54
2022/09/16 09:31:50;;;;;;;;;;;;;;;15.29;56.93;100115.56;4966414;28;19934;-53
2022/09/16 09:34:22;;;;;;;;;;;;;;;15.36;56.72;100100.78;4967668;28;19914;-54
2022/09/16 09:37:06;;;;;;;;;;;;;;;15.46;56.78;100091.06;4965920;28;19957;-54
2022/09/16 09:39:50;;;;;;;;;;;;;;;15.56;56.65;100101.69;4968385;28;20052;-54
2022/09/16 09:42:28;;;;;;;;;;;;;;;15.63;55.97;100109.94;4966263;28;19929;-54
2022/09/16 09:45:05;;;;;;;;;;;;;;;15.66;55.69;100096.38;4968170;28;19922;-54
2022/09/16 09:47:39;;;;;;;;;;;;;;;15.67;55.09;100092.75;4965063;28;20013;-53
2022/09/16 09:50:14;;;;;;;;;;;;;;;15.68;55.28;100091.78;4967658;28;20350;-56
2022/09/16 09:52:53;;;;;;;;;;;;;;;15.70;55.34;100095.13;4966952;28;19918;-54
2022/09/16 09:55:19;;;;;;;;;;;;;;;15.71;54.67;100118.03;4970731;28;20008;-54
2022/09/16 09:58:14;;;;;;;;;;;;;;;15.66;54.64;100104.34;4970321;28;19925;-54
2022/09/16 10:00:40;;;;;;;;;;;;;;;15.60;54.77;100107.56;4962825;28;19949;-54
2022/09/16 10:03:13;;;;;;;;;;;;;;;15.57;55.07;100123.72;4972016;28;20063;-55
2022/09/16 10:05:39;;;;;;;;;;;;;;;15.57;55.18;100098.06;4971465;28;19921;-56
2022/09/16 10:08:12;;;;;;;;;;;;;;;15.61;54.99;100093.31;4971767;28;19945;-54
2022/09/16 10:10:44;;;;;;;;;;;;;;;15.64;54.73;100103.66;4969789;28;19930;-54
2022/09/16 10:13:11;;;;;;;;;;;;;;;15.67;54.57;100101.56;4969694;28;20453;-57
2022/09/16 10:15:37;;;;;;;;;;;;;;;15.68;54.21;100099.72;4968348;28;20013;-54
2022/09/16 10:18:09;;;;;;;;;;;;;;;15.68;54.28;100095.28;4967035;28;19929;-54
2022/09/16 10:20:40;;;;;;;;;;;;;;;15.72;54.41;100109.09;4969724;28;19925;-54
2022/09/16 10:23:09;;;;;;;;;;;;;;;15.78;54.23;100097.94;4970299;28;20298;-55
2022/09/16 10:25:34;;;;;;;;;;;;;;;15.82;54.30;100095.84;4972576;28;19921;-54
2022/09/16 10:28:01;;;;;;;;;;;;;;;15.83;54.25;100093.06;4973105;28;20397;-54
2022/09/16 10:30:28;;;;;;;;;;;;;;;15.81;53.70;100100.31;4971072;28;19926;-54
2022/09/16 10:33:04;;;;;;;;;;;;;;;15.81;53.98;100083.56;4969903;28;19922;-56
2022/09/16 10:35:34;;;;;;;;;;;;;;;15.83;53.66;100090.41;4969274;28;19921;-55
2022/09/16 10:38:05;;;;;;;;;;;;;;;15.91;53.44;100088.91;4972078;28;19953;-53
2022/09/16 10:40:31;;;;;;;;;;;;;;;15.95;52.95;100095.63;4969878;28;19933;-54
2022/09/16 10:43:00;;;;;;;;;;;;;;;15.96;52.58;100078.69;4969261;28;19918;-53
2022/09/16 10:45:27;;;;;;;;;;;;;;;15.98;52.29;100085.56;4970533;28;19974;-54
2022/09/16 10:47:57;;;;;;;;;;;;;;;16.00;52.52;100082.75;4968327;28;20302;-55
2022/09/16 10:50:24;;;;;;;;;;;;;;;16.01;52.52;100092.41;4969252;28;19937;-57
2022/09/16 10:52:50;;;;;;;;;;;;;;;15.99;52.06;100089.03;4971581;28;20385;-54
2022/09/16 10:55:18;;;;;;;;;;;;;;;15.95;52.00;100109.72;4972084;28;19933;-54
2022/09/16 10:57:44;;;;;;;;;;;;;;;15.93;51.90;100097.56;4969920;28;19925;-54
2022/09/16 11:00:10;;;;;;;;;;;;;;;15.93;52.12;100079.81;4971672;28;19918;-55
2022/09/16 11:02:54;;;;;;;;;;;;;;;15.96;52.32;100099.94;4968094;28;19926;-56
2022/09/16 11:05:38;;;;;;;;;;;;;;;15.98;51.90;100095.31;4969777;28;19980;-54
2022/09/16 11:08:15;;;;;;;;;;;;;;;16.01;51.59;100110.97;4970888;28;20473;-57
2022/09/16 11:10:41;;;;;;;;;;;;;;;16.03;51.12;100071.88;4969961;28;19973;-54
2022/09/16 11:13:25;;;;;;;;;;;;;;;16.09;51.05;100081.94;4968978;28;19918;-54
2022/09/16 11:15:50;;;;;;;;;;;;;;;16.10;50.76;100083.59;4962853;28;19918;-56
2022/09/16 11:18:18;;;;;;;;;;;;;;;16.14;50.74;100092.94;4969223;28;19924;-53
2022/09/16 11:21:02;;;;;;;;;;;;;;;16.18;50.75;100111.25;4971446;28;20007;-56
2022/09/16 11:23:33;;;;;;;;;;;;;;;16.20;50.19;100096.03;4968197;28;20033;-53
2022/09/16 11:26:02;;;;;;;;;;;;;;;16.22;50.32;100086.09;4968657;28;19926;-55
2022/09/16 11:28:42;;;;;;;;;;;;;;;16.27;50.13;100078.53;4968239;28;19918;-54
2022/09/16 11:31:19;;;;;;;;;;;;;;;16.32;50.21;100073.66;4966913;28;19933;-56
2022/09/16 11:33:57;;;;;;;;;;;;;;;16.41;50.16;100074.63;4970812;28;20010;-56
2022/09/16 11:36:36;;;;;;;;;;;;;;;16.49;49.75;100077.38;4969620;28;19945;-53
2022/09/16 11:39:14;;;;;;;;;;;;;;;16.55;49.33;100073.34;4971201;28;19925;-53
2022/09/16 11:41:39;;;;;;;;;;;;;;;16.59;49.41;100062.28;4967650;28;19922;-54
2022/09/16 11:44:14;;;;;;;;;;;;;;;16.64;49.32;100075.13;4969897;28;19953;-55
2022/09/16 11:46:59;;;;;;;;;;;;;;;16.67;48.92;100061.56;4967657;28;19922;-55
2022/09/16 11:49:42;;;;;;;;;;;;;;;16.74;49.04;100053.84;4969507;28;19914;-55
2022/09/16 11:52:08;;;;;;;;;;;;;;;16.78;48.35;100055.22;4969804;28;19964;-54
2022/09/16 11:54:48;;;;;;;;;;;;;;;16.85;48.42;100050.16;4971571;28;19921;-54
2022/09/16 11:57:17;;;;;;;;;;;;;;;16.96;48.41;100041.16;4968034;28;20369;-54
2022/09/16 11:59:54;;;;;;;;;;;;;;;17.02;48.21;100062.69;4968566;28;19918;-55
2022/09/16 12:02:26;;;;;;;;;;;;;;;17.05;48.14;100067.69;4968324;28;20012;-54
2022/09/16 12:05:00;;;;;;;;;;;;;;;17.10;47.94;100048.66;4968169;28;19922;-55
2022/09/16 12:07:36;;;;;;;;;;;;;;;17.18;47.59;100066.50;4967834;28;19934;-54
2022/09/16 12:10:11;;;;;;;;;;;;;;;17.19;47.28;100069.03;4970322;28;20001;-53
2022/09/16 12:12:39;;;;;;;;;;;;;;;17.16;47.32;100056.03;4971162;28;19990;-53
2022/09/16 12:15:16;;;;;;;;;;;;;;;17.06;47.07;100048.13;4965976;28;19926;-54
2022/09/16 12:17:47;;;;;;;;;;;;;;;16.99;47.29;100060.34;4967028;28;19953;-54
2022/09/16 12:20:18;;;;;;;;;;;;;;;16.92;47.46;100051.22;4970458;28;19918;-54
2022/09/16 12:22:53;;;;;;;;;;;;;;;16.91;47.92;100046.91;4970379;28;20338;-53
2022/09/16 12:25:28;;;;;;;;;;;;;;;16.92;48.03;100045.91;4968702;28;19926;-53
2022/09/16 12:28:09;;;;;;;;;;;;;;;16.94;48.03;100049.28;4969994;28;20012;-55
2022/09/16 12:30:36;;;;;;;;;;;;;;;16.89;47.72;100051.53;4968031;28;19957;-54
2022/09/16 12:33:05;;;;;;;;;;;;;;;16.84;47.81;100051.16;4970297;28;19926;-54
2022/09/16 12:35:48;;;;;;;;;;;;;;;16.82;48.10;100072.53;4970627;28;19922;-54
2022/09/16 12:38:19;;;;;;;;;;;;;;;16.79;48.58;100048.06;4969296;28;19940;-56
2022/09/16 12:41:03;;;;;;;;;;;;;;;16.73;48.96;100042.34;4968352;28;19926;-53
2022/09/16 12:43:57;;;;;;;;;;;;;;;16.70;49.25;100033.84;4966488;28;19922;-56
2022/09/16 12:46:32;;;;;;;;;;;;;;;16.69;49.49;100022.41;4956249;28;19921;-57